Time;durP1;ratioP1;P1;durP2;ratioP2;P2;SDS_P1;SDS_P2;PMS_P1;PMS_P2;Temp;Humidity;BMP_temperature;BMP_pressure;BME280_temperature;BME280_humidity;BME280_pressure;Samples;Min_cycle;Max_cycle;Signal;HPM_P1;HPM_P2
2021/04/26 00:01:26;;;;;;;7.20;2.80;;;;;;;4.21;68.07;102369.22;5303454;28;20055;-68
2021/04/26 00:03:58;;;;;;;9.07;2.95;;;;;;;4.33;67.92;102360.16;5304817;28;20024;-68
2021/04/26 00:06:29;;;;;;;9.05;2.47;;;;;;;4.34;67.60;102361.84;5307640;28;20028;-68
2021/04/26 00:09:01;;;;;;;9.30;2.65;;;;;;;4.24;67.63;102363.03;5303427;28;20047;-68
2021/04/26 00:11:33;;;;;;;7.85;2.50;;;;;;;4.28;68.13;102356.84;5289381;28;20035;-68
2021/04/26 00:14:05;;;;;;;8.40;2.70;;;;;;;4.24;68.02;102357.84;5305350;28;20032;-70
2021/04/26 00:16:37;;;;;;;11.05;2.58;;;;;;;4.13;68.01;102351.31;5305176;28;20438;-70
2021/04/26 00:19:08;;;;;;;13.00;3.08;;;;;;;4.16;67.70;102358.13;5306341;28;20031;-70
2021/04/26 00:21:40;;;;;;;8.80;2.70;;;;;;;4.10;68.29;102338.44;5306742;28;20032;-70
2021/04/26 00:24:11;;;;;;;7.82;2.65;;;;;;;4.12;68.68;102340.97;5287617;28;20019;-70
2021/04/26 00:26:42;;;;;;;11.68;2.75;;;;;;;4.03;68.37;102338.69;5306536;28;20481;-70
2021/04/26 00:29:14;;;;;;;7.53;2.47;;;;;;;3.98;68.85;102332.78;5289224;28;20123;-70
2021/04/26 00:31:45;;;;;;;10.85;2.40;;;;;;;4.01;68.68;102324.91;5305266;28;20096;-70
2021/04/26 00:34:16;;;;;;;8.07;2.70;;;;;;;3.96;69.09;102339.78;5306299;28;20520;-70
2021/04/26 00:36:48;;;;;;;14.57;3.20;;;;;;;3.88;68.98;102337.47;5303569;28;20416;-70
2021/04/26 00:39:19;;;;;;;9.30;2.85;;;;;;;3.87;68.73;102340.97;5302841;28;20024;-70
2021/04/26 00:41:50;;;;;;;9.27;2.55;;;;;;;3.72;69.19;102331.94;5287698;28;20392;-70
2021/04/26 00:44:22;;;;;;;10.98;2.90;;;;;;;3.70;69.12;102341.47;5285156;28;20035;-70
2021/04/26 00:46:53;;;;;;;9.82;2.65;;;;;;;3.73;69.16;102340.53;5286230;28;20424;-70
2021/04/26 00:49:24;;;;;;;18.63;3.35;;;;;;;3.70;69.67;102332.88;5306271;28;20031;-70
2021/04/26 00:51:56;;;;;;;5.13;2.25;;;;;;;3.66;69.05;102337.28;5304891;28;20444;-70
2021/04/26 00:54:27;;;;;;;7.95;2.33;;;;;;;3.62;69.42;102326.19;5302434;28;20480;-68
2021/04/26 00:56:59;;;;;;;7.20;2.40;;;;;;;3.63;69.64;102333.03;5306317;28;20077;-68
2021/04/26 00:59:33;;;;;;;13.52;2.78;;;;;;;3.61;69.05;102329.69;5288884;28;20035;-68
2021/04/26 01:02:05;;;;;;;9.60;2.42;;;;;;;3.63;68.93;102324.44;5304345;28;20396;-68
2021/04/26 01:04:36;;;;;;;7.20;2.55;;;;;;;3.63;69.47;102317.50;5303497;28;20035;-70
2021/04/26 01:07:07;;;;;;;10.05;3.20;;;;;;;3.59;68.82;102315.06;5306472;28;20039;-68
2021/04/26 01:09:38;;;;;;;7.75;2.38;;;;;;;3.53;69.66;102305.75;5305352;28;20031;-68
2021/04/26 01:12:16;;;;;;;5.63;2.45;;;;;;;3.50;69.07;102303.25;5304878;28;20028;-68
2021/04/26 01:17:22;;;;;;;12.05;3.03;;;;;;;3.50;69.22;102305.00;5336294;22;20332;-67
2021/04/26 01:20:15;;;;;;;9.45;2.70;;;;;;;3.51;69.38;102302.34;5290546;28;20150;-66
2021/04/26 01:23:08;;;;;;;5.68;2.58;;;;;;;3.57;68.66;102301.31;5257333;28;20044;-67
2021/04/26 01:25:42;;;;;;;7.85;2.63;;;;;;;3.50;69.28;102300.66;5278208;28;20411;-66
2021/04/26 01:28:46;;;;;;;7.30;2.45;;;;;;;3.39;69.55;102295.81;5302416;28;20047;-66
2021/04/26 01:31:24;;;;;;;13.13;2.67;;;;;;;3.37;69.03;102286.38;5302100;28;20059;-66
2021/04/26 01:33:58;;;;;;;6.75;2.25;;;;;;;3.29;69.32;102290.97;5303047;28;20373;-67
2021/04/26 01:36:30;;;;;;;8.68;2.38;;;;;;;3.38;69.50;102293.28;5303494;28;20089;-67
2021/04/26 01:39:02;;;;;;;10.90;2.53;;;;;;;3.26;69.63;102284.16;5303149;28;20110;-66
2021/04/26 01:41:36;;;;;;;9.02;2.20;;;;;;;3.35;69.17;102289.03;5301496;28;20558;-66
2021/04/26 01:44:09;;;;;;;7.47;2.55;;;;;;;3.24;69.46;102285.09;5301080;28;20019;-67
2021/04/26 01:46:42;;;;;;;5.97;2.65;;;;;;;3.19;69.29;102279.22;5301179;28;20027;-67
2021/04/26 01:49:16;;;;;;;9.00;2.72;;;;;;;3.16;69.50;102269.78;5303240;28;20531;-66
2021/04/26 01:51:49;;;;;;;5.13;2.40;;;;;;;3.17;69.52;102272.31;5304016;28;20106;-66
2021/04/26 01:54:21;;;;;;;9.38;2.53;;;;;;;3.08;69.48;102271.78;5284590;28;20325;-66
2021/04/26 01:56:54;;;;;;;5.93;2.08;;;;;;;3.13;69.07;102272.47;5302847;28;20237;-67
2021/04/26 01:59:26;;;;;;;8.18;2.45;;;;;;;2.99;69.36;102280.66;5302416;28;20386;-67
2021/04/26 02:01:58;;;;;;;9.43;3.10;;;;;;;3.01;69.02;102276.28;5298484;28;20364;-66
2021/04/26 02:04:33;;;;;;;8.73;2.50;;;;;;;3.04;69.36;102280.53;5300304;28;20041;-66
2021/04/26 02:07:05;;;;;;;7.15;2.83;;;;;;;2.91;69.67;102280.03;5293452;28;20495;-66
2021/04/26 02:09:39;;;;;;;7.55;2.40;;;;;;;2.85;69.68;102270.72;5303934;28;20036;-66
2021/04/26 02:12:12;;;;;;;9.55;2.90;;;;;;;2.85;69.92;102272.47;5281130;28;20066;-65
2021/04/26 02:14:43;;;;;;;;;;;;;;;3.11;67.46;102269.94;5301040;28;20017;-66
2021/04/26 02:17:15;;;;;;;5.27;2.60;;;;;;;2.79;69.14;102275.22;5278213;28;20163;-67
2021/04/26 02:19:47;;;;;;;7.80;2.70;;;;;;;2.77;69.44;102270.09;5276374;28;20326;-68
2021/04/26 02:22:18;;;;;;;8.82;2.63;;;;;;;2.72;70.15;102271.13;5256441;28;20020;-66
2021/04/26 02:24:50;;;;;;;9.52;2.63;;;;;;;2.66;69.95;102267.81;5274002;28;20052;-68
2021/04/26 02:27:21;;;;;;;8.68;2.58;;;;;;;2.73;69.40;102265.03;5276482;28;20031;-68
2021/04/26 02:29:53;;;;;;;10.82;2.50;;;;;;;2.67;69.87;102261.75;5274538;28;20064;-66
2021/04/26 02:32:42;;;;;;;7.53;2.60;;;;;;;2.63;70.16;102257.56;5277041;28;20069;-67
2021/04/26 02:35:18;;;;;;;8.13;2.72;;;;;;;2.65;70.00;102265.25;5277366;28;20024;-66
2021/04/26 02:37:58;;;;;;;6.07;2.28;;;;;;;2.64;70.06;102254.06;5276807;28;20063;-65
2021/04/26 02:40:39;;;;;;;11.85;2.60;;;;;;;2.59;69.71;102253.38;5278649;28;20032;-65
2021/04/26 02:43:15;;;;;;;9.60;3.33;;;;;;;2.53;69.82;102250.94;5276492;28;20028;-67
2021/04/26 02:45:55;;;;;;;6.15;2.67;;;;;;;2.58;70.11;102248.25;5256935;28;20307;-66
2021/04/26 02:48:26;;;;;;;6.10;2.63;;;;;;;2.58;69.77;102243.06;5276732;28;20027;-65
2021/04/26 02:50:59;;;;;;;5.25;2.78;;;;;;;2.48;69.92;102247.66;5275571;28;20028;-67
2021/04/26 02:53:32;;;;;;;;;;;;;;;2.68;68.30;102241.88;5298174;28;20546;-66
2021/04/26 02:56:14;;;;;;;5.97;2.72;;;;;;;2.46;70.04;102246.00;5297543;28;19915;-65
2021/04/26 02:58:51;;;;;;;7.25;2.75;;;;;;;2.35;69.78;102242.00;5297104;28;20173;-66
2021/04/26 03:01:23;;;;;;;13.18;3.22;;;;;;;2.26;70.34;102241.38;5299687;28;20284;-66
2021/04/26 03:03:55;;;;;;;6.30;2.43;;;;;;;2.27;69.97;102237.91;5298935;28;20028;-66
2021/04/26 03:06:27;;;;;;;8.70;2.40;;;;;;;2.20;70.36;102234.66;5297845;28;20677;-66
2021/04/26 03:09:00;;;;;;;6.93;2.70;;;;;;;2.23;71.18;102226.78;5298804;28;20044;-67
2021/04/26 03:11:31;;;;;;;6.78;2.80;;;;;;;2.20;70.39;102219.16;5298008;28;20423;-67
2021/04/26 03:14:04;;;;;;;9.43;2.88;;;;;;;2.17;70.83;102209.72;5296658;28;20492;-66
2021/04/26 03:16:36;;;;;;;7.85;2.40;;;;;;;2.24;70.54;102214.75;5298686;28;20044;-67
2021/04/26 03:19:08;;;;;;;11.48;2.70;;;;;;;2.21;70.66;102213.06;5301154;28;20054;-66
2021/04/26 03:21:42;;;;;;;9.45;2.85;;;;;;;2.23;70.70;102211.28;5301474;28;20056;-66
2021/04/26 03:24:15;;;;;;;5.40;2.63;;;;;;;2.22;70.31;102214.75;5282794;28;20093;-66
2021/04/26 03:26:48;;;;;;;10.73;3.38;;;;;;;2.21;70.86;102207.91;5303054;28;20506;-66
2021/04/26 03:29:21;;;;;;;9.45;2.90;;;;;;;2.23;70.61;102207.84;5301278;28;20028;-66
2021/04/26 03:31:53;;;;;;;;;;;;;;;2.38;68.92;102199.66;5304007;28;20042;-66
2021/04/26 03:34:25;;;;;;;8.68;2.97;;;;;;;2.17;70.70;102204.56;5300122;28;19920;-66
2021/04/26 03:36:57;;;;;;;12.30;2.92;;;;;;;2.09;70.57;102201.34;5301746;28;20027;-66
2021/04/26 03:39:29;;;;;;;6.95;2.70;;;;;;;2.07;71.09;102195.34;5303278;28;20111;-65
2021/04/26 03:42:00;;;;;;;7.18;3.10;;;;;;;2.05;71.20;102193.72;5286824;28;20131;-68
2021/04/26 03:44:32;;;;;;;9.13;3.58;;;;;;;2.06;71.33;102195.41;5298527;28;20023;-66
2021/04/26 03:47:05;;;;;;;6.82;3.05;;;;;;;2.05;71.11;102199.72;5303870;28;20236;-66
2021/04/26 03:49:37;;;;;;;8.45;2.72;;;;;;;1.97;71.03;102198.22;5305043;28;20030;-66
2021/04/26 03:52:09;;;;;;;9.45;2.95;;;;;;;2.00;70.23;102201.56;5301947;28;20051;-68
2021/04/26 03:54:40;;;;;;;7.78;3.08;;;;;;;1.91;70.77;102213.00;5305116;28;20016;-66
2021/04/26 03:57:11;;;;;;;7.90;2.92;;;;;;;1.85;71.34;102201.97;5304424;28;20051;-67
2021/04/26 03:59:43;;;;;;;6.40;2.95;;;;;;;1.74;71.13;102204.00;5301682;28;20111;-65
2021/04/26 04:02:14;;;;;;;13.55;3.67;;;;;;;1.69;71.62;102197.22;5276056;28;20088;-67
2021/04/26 04:04:45;;;;;;;8.02;3.03;;;;;;;1.69;71.54;102196.38;5301226;28;20271;-66
2021/04/26 04:07:17;;;;;;;5.80;2.83;;;;;;;1.67;71.79;102195.59;5301367;28;20487;-66
2021/04/26 04:09:48;;;;;;;10.30;3.30;;;;;;;1.69;71.63;102196.38;5302723;28;20107;-67
2021/04/26 04:12:19;;;;;;;5.68;2.83;;;;;;;1.66;72.09;102186.13;5303012;28;20503;-66
2021/04/26 04:14:51;;;;;;;8.00;2.80;;;;;;;1.62;71.83;102187.94;5304019;28;20042;-66
2021/04/26 04:17:22;;;;;;;6.18;2.90;;;;;;;1.59;72.24;102180.28;5305659;27;20043;-65
2021/04/26 04:19:53;;;;;;;7.28;2.85;;;;;;;1.61;71.99;102180.25;5304872;28;20407;-66
2021/04/26 04:22:25;;;;;;;9.05;2.95;;;;;;;1.67;71.91;102178.34;5301909;28;20028;-67
2021/04/26 04:24:56;;;;;;;8.18;3.00;;;;;;;1.58;72.26;102188.06;5302808;28;20024;-68
2021/04/26 04:27:27;;;;;;;9.10;3.13;;;;;;;1.61;71.82;102186.25;5287226;28;20032;-67
2021/04/26 04:29:58;;;;;;;8.30;3.30;;;;;;;1.61;72.20;102188.81;5299724;28;20498;-68
2021/04/26 04:32:30;;;;;;;8.30;2.75;;;;;;;1.74;71.92;102186.75;5302690;28;20023;-66
2021/04/26 04:35:02;;;;;;;9.75;3.30;;;;;;;1.62;72.53;102176.75;5305093;28;20024;-66
2021/04/26 04:37:34;;;;;;;9.30;2.90;;;;;;;1.71;72.16;102184.28;5279751;28;20062;-66
2021/04/26 04:40:06;;;;;;;7.03;2.88;;;;;;;1.62;72.08;102185.34;5299037;28;20374;-67
2021/04/26 04:42:38;;;;;;;6.72;2.67;;;;;;;1.59;72.32;102185.44;5302717;28;20044;-66
2021/04/26 04:45:09;;;;;;;8.50;3.00;;;;;;;1.63;72.35;102179.31;5301007;28;20234;-67
2021/04/26 04:47:41;;;;;;;8.10;3.00;;;;;;;1.62;72.11;102189.66;5306036;28;20035;-67
2021/04/26 04:50:13;;;;;;;9.00;3.10;;;;;;;1.68;72.51;102186.94;5302739;28;20476;-67
2021/04/26 04:52:44;;;;;;;9.65;3.25;;;;;;;1.65;72.31;102185.28;5304692;28;20043;-66
2021/04/26 04:55:15;;;;;;;9.05;3.17;;;;;;;1.72;72.31;102190.28;5302176;28;20028;-68
2021/04/26 04:57:46;;;;;;;8.90;3.03;;;;;;;1.76;72.00;102187.59;5306320;28;20503;-66
2021/04/26 05:00:18;;;;;;;9.45;3.45;;;;;;;1.75;71.80;102188.47;5308243;28;20032;-67
2021/04/26 05:02:49;;;;;;;7.78;2.90;;;;;;;1.75;71.89;102185.91;5282602;28;20023;-67
2021/04/26 05:05:20;;;;;;;6.30;2.80;;;;;;;1.78;71.91;102185.81;5301794;28;20024;-66
2021/04/26 05:07:52;;;;;;;7.88;2.80;;;;;;;1.78;72.48;102190.13;5306840;28;20332;-68
2021/04/26 05:10:24;;;;;;;8.43;3.70;;;;;;;1.91;72.31;102186.31;5306977;28;20273;-67
2021/04/26 05:12:55;;;;;;;9.50;3.47;;;;;;;1.86;71.75;102178.72;5300943;28;20031;-68
2021/04/26 05:15:26;;;;;;;8.82;3.22;;;;;;;1.92;71.67;102178.53;5300369;28;20432;-65
2021/04/26 05:17:58;;;;;;;8.98;3.30;;;;;;;2.05;71.68;102185.97;5301647;28;20024;-66
2021/04/26 05:20:29;;;;;;;8.00;3.30;;;;;;;2.13;71.50;102176.25;5299849;28;20267;-67
2021/04/26 05:23:01;;;;;;;8.48;3.05;;;;;;;2.16;71.01;102184.78;5303642;28;20460;-66
2021/04/26 05:25:32;;;;;;;10.85;3.25;;;;;;;2.23;71.11;102187.16;5302809;28;20039;-66
2021/04/26 05:28:05;;;;;;;9.23;3.50;;;;;;;2.29;70.75;102180.09;5304787;28;20108;-67
2021/04/26 05:30:36;;;;;;;9.10;3.53;;;;;;;2.37;70.84;102179.88;5301221;28;20152;-66
2021/04/26 05:33:08;;;;;;;10.55;3.42;;;;;;;2.46;70.97;102176.16;5302795;28;20399;-66
2021/04/26 05:35:39;;;;;;;6.65;3.58;;;;;;;2.58;70.50;102180.97;5300055;28;20032;-66
2021/04/26 05:38:15;;;;;;;13.05;3.22;;;;;;;2.58;70.19;102179.25;5301450;28;20408;-66
2021/04/26 05:40:48;;;;;;;14.90;4.00;;;;;;;2.60;69.81;102179.19;5304197;28;20024;-66
2021/04/26 05:43:19;;;;;;;11.47;3.50;;;;;;;2.65;69.99;102183.34;5300130;28;20480;-66
2021/04/26 05:45:51;;;;;;;12.50;4.10;;;;;;;2.70;69.52;102177.19;5302176;28;20077;-66
2021/04/26 05:48:22;;;;;;;11.93;3.45;;;;;;;2.76;69.69;102182.97;5299114;28;20041;-66
2021/04/26 05:50:54;;;;;;;12.20;4.30;;;;;;;2.81;69.08;102183.72;5302206;28;20039;-66
2021/04/26 05:53:25;;;;;;;21.13;4.40;;;;;;;2.77;69.04;102179.53;5301439;28;20036;-66
2021/04/26 05:55:56;;;;;;;21.90;4.68;;;;;;;2.87;69.07;102180.06;5301081;27;20043;-65
2021/04/26 05:58:28;;;;;;;10.50;3.75;;;;;;;2.88;68.99;102174.03;5301468;28;20043;-67
2021/04/26 06:01:00;;;;;;;10.90;3.80;;;;;;;2.97;69.33;102176.31;5303358;28;20060;-67
2021/04/26 06:03:31;;;;;;;8.02;3.83;;;;;;;3.02;68.04;102178.75;5302875;28;20081;-66
2021/04/26 06:06:03;;;;;;;9.18;3.85;;;;;;;3.06;69.38;102178.59;5298542;28;20513;-66
2021/04/26 06:08:34;;;;;;;10.07;3.65;;;;;;;3.16;68.71;102174.81;5303202;28;20423;-66
2021/04/26 06:11:05;;;;;;;11.52;3.78;;;;;;;3.23;68.25;102172.88;5304040;28;20054;-66
2021/04/26 06:13:37;;;;;;;9.55;3.45;;;;;;;3.33;68.50;102181.19;5301455;28;20020;-66
2021/04/26 06:16:08;;;;;;;8.15;3.50;;;;;;;3.40;67.39;102180.09;5300296;28;20048;-66
2021/04/26 06:18:39;;;;;;;9.75;3.97;;;;;;;3.42;66.44;102173.97;5282048;28;20044;-67
2021/04/26 06:21:11;;;;;;;12.13;4.00;;;;;;;3.56;67.18;102170.91;5301751;28;20028;-66
2021/04/26 06:23:42;;;;;;;7.47;3.80;;;;;;;3.67;66.62;102167.94;5299223;28;20032;-68
2021/04/26 06:26:13;;;;;;;6.45;3.65;;;;;;;3.75;65.84;102167.66;5312883;28;20027;-66
2021/04/26 06:28:45;;;;;;;7.07;3.45;;;;;;;3.87;65.63;102169.84;5300400;28;20039;-68
2021/04/26 06:31:16;;;;;;;9.13;3.72;;;;;;;4.03;65.39;102160.59;5303504;28;20028;-67
2021/04/26 06:33:47;;;;;;;8.65;4.90;;;;;;;4.09;64.83;102160.41;5302493;28;20060;-67
2021/04/26 06:36:18;;;;;;;9.43;3.67;;;;;;;4.22;64.61;102162.53;5297923;28;20061;-68
2021/04/26 06:38:50;;;;;;;10.23;4.40;;;;;;;4.36;63.64;102162.88;5309295;28;20472;-67
2021/04/26 06:41:22;;;;;;;9.98;3.50;;;;;;;4.46;64.64;102160.75;5304900;28;20028;-65
2021/04/26 06:43:53;;;;;;;11.05;3.40;;;;;;;4.66;64.09;102168.63;5299762;28;20077;-67
2021/04/26 06:46:24;;;;;;;14.02;3.90;;;;;;;4.82;63.67;102161.94;5298686;28;20027;-67
2021/04/26 06:48:56;;;;;;;7.03;3.53;;;;;;;4.97;62.34;102162.22;5301560;28;20028;-65
2021/04/26 06:51:28;;;;;;;5.78;3.83;;;;;;;5.14;62.59;102159.78;5301272;28;20629;-65
2021/04/26 06:53:59;;;;;;;8.60;3.42;;;;;;;5.25;61.71;102154.16;5302177;28;20250;-65
2021/04/26 06:56:31;;;;;;;10.80;4.40;;;;;;;5.32;62.20;102151.22;5301070;28;20063;-67
2021/04/26 06:59:02;;;;;;;7.15;3.33;;;;;;;5.48;60.64;102150.59;5303865;28;20042;-65
2021/04/26 07:01:33;;;;;;;9.10;3.70;;;;;;;5.59;60.70;102151.81;5303364;28;20146;-67
2021/04/26 07:04:06;;;;;;;7.78;3.55;;;;;;;5.66;59.46;102155.00;5300565;28;20024;-66
2021/04/26 07:06:37;;;;;;;7.05;3.17;;;;;;;5.79;59.87;102142.28;5283592;28;20100;-66
2021/04/26 07:09:08;;;;;;;7.93;3.30;;;;;;;5.91;59.09;102139.19;5300056;28;20539;-65
2021/04/26 07:11:40;;;;;;;13.13;3.63;;;;;;;6.06;59.31;102145.47;5300016;28;20028;-67
2021/04/26 07:14:12;;;;;;;9.10;3.40;;;;;;;6.19;58.60;102137.97;5302539;28;20051;-67
2021/04/26 07:16:43;;;;;;;7.45;3.38;;;;;;;6.28;58.81;102137.53;5302874;28;20493;-67
2021/04/26 07:19:14;;;;;;;9.30;3.53;;;;;;;6.45;59.40;102139.38;5295861;28;20043;-66
2021/04/26 07:21:46;;;;;;;9.65;3.97;;;;;;;6.65;57.95;102126.22;5284926;28;20024;-67
2021/04/26 07:24:17;;;;;;;6.32;3.20;;;;;;;6.82;57.01;102133.25;5278608;28;20024;-65
2021/04/26 07:26:48;;;;;;;7.70;3.40;;;;;;;6.93;57.42;102132.72;5303620;28;20074;-66
2021/04/26 07:29:19;;;;;;;10.30;3.42;;;;;;;7.04;56.92;102139.06;5306744;28;20032;-67
2021/04/26 07:31:51;;;;;;;7.10;3.40;;;;;;;7.11;56.33;102128.38;5289465;28;20020;-67
2021/04/26 07:34:22;;;;;;;9.15;3.78;;;;;;;7.29;55.33;102123.06;5299037;28;20041;-66
2021/04/26 07:36:54;;;;;;;7.22;3.60;;;;;;;7.38;54.93;102126.13;5286002;28;20028;-66
2021/04/26 07:39:25;;;;;;;9.95;3.65;;;;;;;7.50;54.46;102128.97;5304616;28;20026;-67
2021/04/26 07:42:00;;;;;;;6.95;3.67;;;;;;;7.60;53.27;102123.28;5304412;28;20038;-66
2021/04/26 07:44:31;;;;;;;7.18;3.00;;;;;;;7.77;53.41;102128.47;5302141;28;20185;-66
2021/04/26 07:47:03;;;;;;;5.60;3.17;;;;;;;7.86;53.11;102122.75;5278047;28;20118;-66
2021/04/26 07:49:34;;;;;;;7.10;3.60;;;;;;;7.96;53.25;102125.72;5308402;28;20024;-66
2021/04/26 07:52:06;;;;;;;8.38;3.47;;;;;;;8.07;53.00;102119.91;5307148;28;20024;-67
2021/04/26 07:54:37;;;;;;;6.35;3.20;;;;;;;8.17;52.14;102121.09;5306103;28;20024;-67
2021/04/26 07:57:08;;;;;;;5.78;3.38;;;;;;;8.38;52.38;102117.38;5311593;28;20469;-65
2021/04/26 07:59:40;;;;;;;6.65;3.50;;;;;;;8.53;50.55;102121.72;5307466;28;20111;-66
2021/04/26 08:02:11;;;;;;;5.65;3.05;;;;;;;8.67;50.35;102120.09;5288020;28;20027;-67
2021/04/26 08:04:42;;;;;;;6.50;3.20;;;;;;;8.81;51.18;102114.94;5308400;28;20479;-69
2021/04/26 08:07:14;;;;;;;7.38;3.17;;;;;;;8.92;50.43;102109.09;5306623;28;20035;-68
2021/04/26 08:09:45;;;;;;;7.65;3.38;;;;;;;9.02;49.20;102121.56;5302322;28;20028;-67
2021/04/26 08:12:16;;;;;;;7.80;3.28;;;;;;;9.14;49.08;102113.94;5307189;28;20076;-67
2021/04/26 08:14:48;;;;;;;9.38;3.65;;;;;;;9.31;49.25;102116.38;5289748;28;20024;-68
2021/04/26 08:17:19;;;;;;;6.93;3.05;;;;;;;9.42;49.13;102113.97;5286621;28;20044;-66
2021/04/26 08:19:51;;;;;;;6.35;3.08;;;;;;;9.53;48.69;102112.50;5289800;28;20036;-67
2021/04/26 08:22:23;;;;;;;11.23;3.55;;;;;;;9.57;46.95;102112.22;5300153;28;20130;-67
2021/04/26 08:24:54;;;;;;;7.35;3.00;;;;;;;9.58;46.37;102108.66;5305725;28;20016;-67
2021/04/26 08:27:26;;;;;;;7.57;3.63;;;;;;;9.90;47.34;102103.25;5306480;28;20038;-68
2021/04/26 08:29:57;;;;;;;7.22;3.40;;;;;;;10.04;48.31;102105.00;5288788;28;20515;-68
2021/04/26 08:32:28;;;;;;;10.63;3.33;;;;;;;10.12;47.24;102100.16;5309987;28;20224;-66
2021/04/26 08:35:00;;;;;;;9.20;4.00;;;;;;;10.19;45.94;102102.28;5296728;28;20061;-68
2021/04/26 08:37:31;;;;;;;6.68;3.30;;;;;;;10.39;44.41;102108.91;5307601;28;20486;-68
2021/04/26 08:40:03;;;;;;;5.55;3.30;;;;;;;10.35;44.59;102099.56;5309358;28;20035;-68
2021/04/26 08:42:35;;;;;;;6.27;3.47;;;;;;;10.56;45.04;102094.69;5302274;28;20042;-68
2021/04/26 08:45:09;;;;;;;6.93;3.20;;;;;;;10.65;44.09;102095.91;5301946;28;20448;-68
2021/04/26 08:47:41;;;;;;;8.82;3.53;;;;;;;10.88;44.37;102097.84;5305385;28;20028;-67
2021/04/26 08:50:13;;;;;;;10.35;4.38;;;;;;;10.92;42.95;102088.00;5302176;28;20342;-67
2021/04/26 08:52:44;;;;;;;9.15;3.50;;;;;;;11.06;43.40;102093.19;5302650;28;20032;-66
2021/04/26 08:55:17;;;;;;;6.28;3.33;;;;;;;11.19;41.93;102085.31;5301728;27;20309;-69
2021/04/26 08:57:50;;;;;;;6.22;3.30;;;;;;;11.37;42.47;102081.44;5303163;28;20035;-68
2021/04/26 09:00:21;;;;;;;8.23;3.70;;;;;;;11.54;41.58;102077.66;5302423;28;20059;-67
2021/04/26 09:03:03;;;;;;;5.03;3.05;;;;;;;11.73;42.42;102081.63;5305675;28;20502;-69
2021/04/26 09:05:36;;;;;;;9.02;3.60;;;;;;;11.86;40.24;102064.09;5281799;28;20032;-67
2021/04/26 09:08:13;;;;;;;5.00;3.08;;;;;;;11.81;40.44;102059.13;5303754;28;20084;-68
2021/04/26 09:10:50;;;;;;;7.25;3.40;;;;;;;12.02;40.18;102067.31;5300885;28;20023;-68
2021/04/26 09:13:24;;;;;;;9.07;4.10;;;;;;;11.98;39.84;102067.66;5301850;28;20375;-67
2021/04/26 09:16:10;;;;;;;6.85;3.20;;;;;;;12.32;39.65;102061.63;5301610;28;20085;-68
2021/04/26 09:18:56;;;;;;;5.32;3.15;;;;;;;12.31;35.08;102056.47;5301315;28;20032;-68
2021/04/26 09:21:35;;;;;;;8.02;2.78;;;;;;;12.20;36.11;102046.78;5298113;28;20047;-67
2021/04/26 09:24:36;;;;;;;5.13;2.60;;;;;;;12.34;35.09;102059.72;5302350;28;20115;-68
2021/04/26 09:27:10;;;;;;;4.63;2.65;;;;;;;12.35;33.87;102055.31;5300124;28;20031;-68
2021/04/26 09:29:41;;;;;;;6.78;2.70;;;;;;;12.32;33.45;102051.13;5302858;28;20027;-68
2021/04/26 09:32:22;;;;;;;6.68;2.50;;;;;;;12.46;34.05;102046.63;5305451;28;20035;-67
2021/04/26 09:34:54;;;;;;;5.72;3.10;;;;;;;12.43;34.85;102055.59;5298226;28;20036;-69
2021/04/26 09:37:26;;;;;;;4.72;2.95;;;;;;;12.65;34.52;102047.81;5300704;28;20043;-71
2021/04/26 09:40:07;;;;;;;4.45;2.97;;;;;;;12.60;34.77;102043.84;5304948;28;20019;-68
2021/04/26 09:42:47;;;;;;;8.85;3.30;;;;;;;12.74;35.33;102038.41;5306465;28;20024;-69
2021/04/26 09:45:30;;;;;;;4.65;2.78;;;;;;;12.98;33.93;102034.84;5305922;28;20039;-68
2021/04/26 09:48:10;;;;;;;5.40;3.25;;;;;;;13.01;34.03;102032.00;5312898;28;20034;-70
2021/04/26 09:51:02;;;;;;;5.85;3.25;;;;;;;12.98;34.21;102032.22;5300154;27;20031;-68
2021/04/26 09:53:39;;;;;;;4.80;2.97;;;;;;;12.97;33.43;102023.50;5286285;28;20019;-68
2021/04/26 09:56:16;;;;;;;4.65;3.20;;;;;;;13.17;34.28;102011.44;5301008;28;20032;-67
2021/04/26 09:58:56;;;;;;;5.90;3.30;;;;;;;12.82;34.77;102012.34;5297126;27;20882;-66
2021/04/26 10:01:27;;;;;;;5.70;3.30;;;;;;;13.30;34.22;102021.91;5302667;28;20028;-68
2021/04/26 10:04:00;;;;;;;5.40;2.90;;;;;;;13.21;32.74;102006.78;5300794;28;20477;-69
2021/04/26 10:06:32;;;;;;;6.30;2.90;;;;;;;13.13;32.19;102020.53;5296035;28;20418;-67
2021/04/26 10:09:06;;;;;;;4.93;2.85;;;;;;;13.25;32.28;102014.34;5300772;28;20027;-67
2021/04/26 10:11:38;;;;;;;6.22;2.85;;;;;;;13.60;33.00;102005.50;5330489;22;20063;-68
2021/04/26 10:14:10;;;;;;;8.25;2.83;;;;;;;13.67;32.44;101997.94;5268491;28;20489;-68
2021/04/26 10:17:05;;;;;;;5.05;3.10;;;;;;;13.67;33.20;101996.13;5274768;28;20075;-68
2021/04/26 10:19:49;;;;;;;4.75;3.13;;;;;;;13.57;32.44;101995.22;5274817;28;20059;-68
2021/04/26 10:22:38;;;;;;;6.82;3.00;;;;;;;13.56;32.13;101989.13;5292846;28;20484;-68
2021/04/26 10:25:10;;;;;;;4.60;2.80;;;;;;;13.41;32.04;101976.31;5298403;28;20725;-68
2021/04/26 10:27:46;;;;;;;6.47;3.22;;;;;;;13.44;32.77;101982.16;5298281;28;20024;-68
2021/04/26 10:30:17;;;;;;;9.07;2.97;;;;;;;13.61;32.81;101972.94;5290400;28;20021;-68
2021/04/26 10:33:03;;;;;;;7.97;3.80;;;;;;;13.62;32.72;101966.72;5296511;28;20035;-69
2021/04/26 10:35:46;;;;;;;6.13;3.20;;;;;;;13.96;31.92;101966.63;5291342;28;20019;-69
2021/04/26 10:38:33;;;;;;;8.98;2.88;;;;;;;14.01;31.03;101975.00;5298112;28;20038;-69
2021/04/26 10:41:06;;;;;;;6.07;2.85;;;;;;;13.70;31.31;101974.00;5297431;28;20036;-69
2021/04/26 10:43:38;;;;;;;5.03;2.63;;;;;;;13.74;30.08;101973.63;5294612;28;20056;-68
2021/04/26 10:46:20;;;;;;;5.72;2.88;;;;;;;13.70;30.42;101960.84;5299227;28;20082;-68
2021/04/26 10:49:03;;;;;;;5.50;3.03;;;;;;;14.12;30.68;101967.03;5297745;28;20027;-69
2021/04/26 10:51:35;;;;;;;;;;;;;;;14.35;31.71;101962.50;5294996;28;20024;-68
2021/04/26 10:54:07;;;;;;;6.60;3.00;;;;;;;14.08;31.58;101955.91;5317530;27;19955;-69
2021/04/26 10:56:38;;;;;;;5.75;2.85;;;;;;;14.07;31.62;101941.06;5299173;28;20181;-69
2021/04/26 10:59:15;;;;;;;6.30;3.10;;;;;;;14.30;30.18;101952.34;5292585;28;20277;-69
2021/04/26 11:01:48;;;;;;;4.53;2.70;;;;;;;14.35;29.83;101944.06;5298054;28;20035;-68
2021/04/26 11:04:20;;;;;;;6.10;3.30;;;;;;;14.29;29.92;101942.78;5298509;28;20023;-68
2021/04/26 11:07:12;;;;;;;6.85;3.05;;;;;;;14.46;30.18;101933.44;5300034;28;20394;-68
2021/04/26 11:09:44;;;;;;;7.45;2.90;;;;;;;14.39;29.97;101932.28;5287328;28;20119;-69
2021/04/26 11:12:34;;;;;;;8.73;3.47;;;;;;;14.65;30.83;101922.22;5283579;28;20428;-68
2021/04/26 11:15:19;;;;;;;11.40;3.55;;;;;;;14.70;32.27;101912.13;5301560;28;20741;-69
2021/04/26 11:17:51;;;;;;;12.35;3.13;;;;;;;14.73;31.04;101914.47;5285955;28;20028;-69
2021/04/26 11:20:26;;;;;;;7.03;3.00;;;;;;;14.91;29.82;101903.31;5278088;28;20024;-69
2021/04/26 11:22:57;;;;;;;6.75;3.17;;;;;;;14.76;29.48;101908.13;5285603;28;20626;-69
2021/04/26 11:25:34;;;;;;;5.78;3.45;;;;;;;14.80;28.92;101899.81;5282014;28;20025;-70
2021/04/26 11:28:12;;;;;;;7.97;3.20;;;;;;;14.78;29.79;101891.19;5284318;28;20515;-69
2021/04/26 11:30:50;;;;;;;4.65;2.92;;;;;;;15.06;29.64;101894.09;5284942;28;20032;-69
2021/04/26 11:33:22;;;;;;;7.18;3.65;;;;;;;14.88;29.63;101882.47;5283704;28;20034;-69
2021/04/26 11:36:10;;;;;;;6.78;3.40;;;;;;;15.11;29.88;101885.75;5279593;28;20081;-68
2021/04/26 11:38:43;;;;;;;5.40;3.65;;;;;;;14.72;29.41;101878.53;5283877;28;20440;-68
2021/04/26 11:41:14;;;;;;;6.05;3.58;;;;;;;14.91;28.59;101876.94;5286643;28;20660;-68
2021/04/26 11:43:48;;;;;;;6.78;3.28;;;;;;;14.79;28.02;101879.69;5283315;28;20066;-68
2021/04/26 11:46:24;;;;;;;8.10;3.05;;;;;;;14.81;27.90;101875.13;5285586;28;20024;-68
2021/04/26 11:49:15;;;;;;;4.43;2.90;;;;;;;15.07;28.09;101880.75;5287284;28;20044;-67
2021/04/26 11:51:53;;;;;;;5.05;3.00;;;;;;;15.14;28.62;101878.41;5286237;28;20032;-69
2021/04/26 11:54:27;;;;;;;5.28;2.90;;;;;;;15.07;28.95;101859.63;5278214;28;20542;-69
2021/04/26 11:57:01;;;;;;;8.82;2.60;;;;;;;15.53;29.50;101857.34;5283635;28;20031;-69
2021/04/26 11:59:33;;;;;;;6.00;2.95;;;;;;;15.26;27.92;101844.81;5288565;28;20027;-69
2021/04/26 12:02:04;;;;;;;8.43;3.40;;;;;;;15.28;27.76;101854.28;5286831;28;20111;-69
2021/04/26 12:04:41;;;;;;;5.43;2.95;;;;;;;15.07;28.37;101858.78;5282292;28;21068;-69